Time;durP1;ratioP1;P1;durP2;ratioP2;P2;SDS_P1;SDS_P2;PMS_P1;PMS_P2;Temp;Humidity;BMP_temperature;BMP_pressure;BME280_temperature;BME280_humidity;BME280_pressure;Samples;Min_cycle;Max_cycle;Signal;HPM_P1;HPM_P2
2021/12/12 00:01:21;;;;;;;35.63;17.10;;;1.50;99.90;;;;;;5074252;28;20231;-72
2021/12/12 00:03:52;;;;;;;36.00;17.37;;;1.60;99.90;;;;;;5077776;28;20205;-72
2021/12/12 00:06:28;;;;;;;34.30;16.10;;;1.70;99.90;;;;;;5074839;28;20289;-72
2021/12/12 00:08:59;;;;;;;36.23;17.17;;;1.80;99.90;;;;;;5073034;28;20194;-72
2021/12/12 00:11:30;;;;;;;35.13;16.17;;;1.80;99.90;;;;;;5075370;28;20707;-72
2021/12/12 00:14:02;;;;;;;31.80;16.17;;;1.80;99.90;;;;;;5078254;28;20189;-73
2021/12/12 00:16:30;;;;;;;35.73;16.67;;;1.80;99.90;;;;;;5076537;28;20206;-72
2021/12/12 00:18:57;;;;;;;36.40;17.50;;;1.80;99.90;;;;;;5081608;28;20199;-72
2021/12/12 00:21:26;;;;;;;34.57;17.40;;;1.90;99.90;;;;;;5083469;28;20280;-73
2021/12/12 00:23:54;;;;;;;34.43;17.27;;;1.90;99.90;;;;;;5075945;28;20297;-73
2021/12/12 00:26:21;;;;;;;34.37;16.43;;;1.90;99.90;;;;;;5077268;28;20205;-73
2021/12/12 00:28:50;;;;;;;36.30;17.53;;;1.90;99.90;;;;;;5082604;28;20614;-73
2021/12/12 00:31:21;;;;;;;35.00;17.30;;;2.10;99.90;;;;;;5087314;28;20647;-73
2021/12/12 00:33:52;;;;;;;35.80;16.10;;;2.00;99.90;;;;;;5075989;28;20199;-73
2021/12/12 00:36:20;;;;;;;35.27;17.20;;;2.10;99.90;;;;;;5072679;28;20640;-73
2021/12/12 00:38:50;;;;;;;33.60;17.47;;;2.10;99.90;;;;;;5077963;28;20205;-73
2021/12/12 00:41:22;;;;;;;30.90;15.83;;;2.00;99.90;;;;;;5081425;28;20199;-73
2021/12/12 00:43:51;;;;;;;34.17;17.30;;;1.90;99.90;;;;;;5075079;28;20407;-73
2021/12/12 00:46:21;;;;;;;35.13;17.67;;;1.90;99.90;;;;;;5080286;28;20195;-73
2021/12/12 00:48:49;;;;;;;35.80;16.70;;;1.90;99.90;;;;;;5076727;28;20209;-73
2021/12/12 00:51:19;;;;;;;31.07;15.90;;;1.80;99.90;;;;;;5074405;28;20252;-73
2021/12/12 00:53:47;;;;;;;30.80;16.33;;;1.80;99.90;;;;;;5082295;28;20206;-73
2021/12/12 00:56:14;;;;;;;35.53;17.47;;;1.80;99.90;;;;;;5077096;28;20587;-73
2021/12/12 00:58:42;;;;;;;35.03;16.90;;;1.80;99.90;;;;;;5074854;28;20257;-73
2021/12/12 01:01:14;;;;;;;35.53;17.00;;;1.80;99.90;;;;;;5074457;28;20205;-73
2021/12/12 01:03:44;;;;;;;35.30;16.83;;;1.80;99.90;;;;;;5081376;28;20195;-73
2021/12/12 01:06:12;;;;;;;36.90;16.90;;;1.80;99.90;;;;;;5074597;28;20702;-73
2021/12/12 01:08:41;;;;;;;35.20;16.87;;;2.00;99.90;;;;;;5080703;28;20244;-73
2021/12/12 01:11:14;;;;;;;33.97;16.87;;;1.90;99.90;;;;;;5078769;28;20663;-73
2021/12/12 01:13:42;;;;;;;35.60;15.53;;;1.90;99.90;;;;;;5076838;28;20202;-73
2021/12/12 01:16:15;;;;;;;35.80;17.57;;;1.90;99.90;;;;;;5074513;28;20588;-73
2021/12/12 01:18:47;;;;;;;35.20;16.90;;;2.10;99.90;;;;;;5078713;28;20198;-73
2021/12/12 01:21:20;;;;;;;39.93;16.43;;;2.10;99.90;;;;;;5077142;28;20634;-73
2021/12/12 01:23:50;;;;;;;40.67;18.87;;;2.20;99.90;;;;;;5075912;28;20298;-73
2021/12/12 01:26:18;;;;;;;35.43;16.83;;;2.30;99.90;;;;;;5083857;28;20200;-73
2021/12/12 01:28:49;;;;;;;38.87;17.43;;;2.20;99.90;;;;;;5074734;28;20657;-73
2021/12/12 01:31:24;;;;;;;43.30;20.20;;;2.30;99.90;;;;;;5075702;28;20582;-73
2021/12/12 01:33:58;;;;;;;38.23;17.33;;;2.40;99.90;;;;;;5075411;28;20208;-73
2021/12/12 01:36:31;;;;;;;40.57;18.40;;;2.50;99.90;;;;;;5076485;28;20230;-73
2021/12/12 01:38:59;;;;;;;40.63;18.23;;;2.50;99.90;;;;;;5077161;28;20634;-73
2021/12/12 01:41:30;;;;;;;39.93;19.80;;;2.50;99.90;;;;;;5072026;28;20663;-73
2021/12/12 01:44:02;;;;;;;42.70;19.60;;;2.50;99.90;;;;;;5079930;28;20205;-73
2021/12/12 01:46:36;;;;;;;40.87;18.10;;;2.60;99.90;;;;;;5072106;28;20263;-73
2021/12/12 01:49:07;;;;;;;40.07;18.23;;;2.60;99.90;;;;;;5072516;28;20213;-73
2021/12/12 01:51:35;;;;;;;35.87;17.93;;;2.60;99.90;;;;;;5068189;28;20203;-73
2021/12/12 01:54:06;;;;;;;38.33;17.57;;;2.80;99.90;;;;;;5054140;28;20209;-73
2021/12/12 01:56:39;;;;;;;39.90;19.57;;;2.70;99.90;;;;;;5053594;28;20218;-73
2021/12/12 01:59:08;;;;;;;39.27;18.03;;;2.60;99.90;;;;;;5068299;28;20260;-73
2021/12/12 02:01:40;;;;;;;37.90;19.73;;;2.60;99.90;;;;;;5065770;28;20206;-73
2021/12/12 02:04:15;;;;;;;37.57;19.03;;;2.50;99.90;;;;;;5073909;28;20210;-73
2021/12/12 02:06:45;;;;;;;36.37;17.07;;;2.50;99.90;;;;;;5072436;28;20194;-73
2021/12/12 02:09:13;;;;;;;35.93;18.87;;;2.50;99.90;;;;;;5071991;28;20214;-73
2021/12/12 02:11:42;;;;;;;34.47;17.73;;;2.60;99.90;;;;;;5058392;28;20203;-73
2021/12/12 02:14:11;;;;;;;38.87;16.50;;;2.60;99.90;;;;;;5062900;28;20225;-73
2021/12/12 02:16:43;;;;;;;38.37;18.43;;;2.70;99.90;;;;;;5070100;28;20226;-73
2021/12/12 02:19:11;;;;;;;35.13;16.03;;;2.80;99.90;;;;;;5071458;28;20206;-73
2021/12/12 02:21:56;;;;;;;30.67;15.73;;;3.00;99.90;;;;;;5070402;28;20283;-73
2021/12/12 02:35:41;;;;;;;34.27;16.17;;;3.20;99.90;;;;;;5061810;28;20268;-72
2021/12/12 02:38:10;;;;;;;31.60;16.23;;;3.20;99.90;;;;;;5067379;28;20204;-72
2021/12/12 02:40:41;;;;;;;30.27;15.63;;;3.20;99.90;;;;;;5081252;28;20201;-72
2021/12/12 02:43:08;;;;;;;32.27;15.37;;;3.10;99.90;;;;;;5075895;28;20222;-72
2021/12/12 02:45:36;;;;;;;30.97;16.33;;;3.10;99.90;;;;;;5060844;28;20301;-72
2021/12/12 02:48:07;;;;;;;31.67;15.53;;;3.00;99.90;;;;;;5080028;28;20280;-72
2021/12/12 02:50:39;;;;;;;36.40;17.73;;;3.10;99.90;;;;;;5074269;28;20628;-72
2021/12/12 02:53:09;;;;;;;29.23;15.17;;;3.10;99.90;;;;;;5084477;28;20213;-72
2021/12/12 02:55:41;;;;;;;32.37;16.27;;;3.10;99.90;;;;;;5080024;28;20338;-72
2021/12/12 02:58:10;;;;;;;30.60;14.30;;;3.10;99.90;;;;;;5074386;28;20245;-72
2021/12/12 03:00:48;;;;;;;28.73;14.50;;;3.10;99.90;;;;;;5073415;28;20194;-72
2021/12/12 03:03:16;;;;;;;32.93;15.53;;;3.10;99.90;;;;;;5073462;28;20190;-72
2021/12/12 03:05:45;;;;;;;28.33;14.07;;;3.10;99.90;;;;;;5075228;28;20209;-72
2021/12/12 03:08:13;;;;;;;27.83;13.70;;;3.20;99.90;;;;;;5075264;28;20658;-72
2021/12/12 03:10:46;;;;;;;31.03;14.40;;;3.10;99.90;;;;;;5068117;28;20199;-72
2021/12/12 03:13:13;;;;;;;24.77;13.70;;;3.10;99.90;;;;;;5059409;28;20216;-72
2021/12/12 03:15:42;;;;;;;28.37;14.50;;;3.10;99.90;;;;;;5071917;28;20685;-72
2021/12/12 03:18:16;;;;;;;24.30;13.00;;;3.10;99.90;;;;;;5072840;28;20222;-72
2021/12/12 03:20:46;;;;;;;29.07;13.90;;;3.10;99.90;;;;;;5071972;28;20199;-72
2021/12/12 03:23:19;;;;;;;25.40;13.10;;;3.20;99.90;;;;;;5070050;28;20202;-72
2021/12/12 03:25:51;;;;;;;28.37;13.00;;;3.20;99.90;;;;;;5072516;28;20191;-72
2021/12/12 03:28:22;;;;;;;28.80;13.40;;;3.20;99.90;;;;;;5074289;28;20198;-72
2021/12/12 03:30:51;;;;;;;26.83;14.13;;;3.20;99.90;;;;;;5076665;28;20575;-72
2021/12/12 03:33:18;;;;;;;28.20;13.03;;;3.30;99.90;;;;;;5073230;28;20347;-72
2021/12/12 03:35:48;;;;;;;27.03;13.20;;;3.20;99.90;;;;;;5074504;28;20228;-72
2021/12/12 03:38:15;;;;;;;27.10;12.97;;;3.20;99.90;;;;;;5075225;28;20208;-72
2021/12/12 03:40:44;;;;;;;27.83;13.73;;;3.20;99.90;;;;;;5071596;28;20198;-72
2021/12/12 03:43:14;;;;;;;27.87;13.00;;;3.10;99.90;;;;;;5080899;28;20206;-65
2021/12/12 03:45:43;;;;;;;26.50;13.33;;;3.20;99.90;;;;;;5077518;28;20200;-65
2021/12/12 03:48:15;;;;;;;25.07;12.27;;;3.20;99.90;;;;;;5074798;28;20703;-65
2021/12/12 03:50:45;;;;;;;25.83;12.53;;;3.30;99.90;;;;;;5073735;28;20205;-65
2021/12/12 03:53:15;;;;;;;25.17;12.87;;;3.30;99.90;;;;;;5073696;28;20202;-65
2021/12/12 03:55:43;;;;;;;25.60;11.40;;;3.30;99.90;;;;;;5059381;28;20673;-66
2021/12/12 03:58:12;;;;;;;24.03;10.97;;;3.40;99.90;;;;;;5062841;28;20339;-65
2021/12/12 04:00:44;;;;;;;24.23;11.53;;;3.40;99.90;;;;;;5071770;28;20212;-65
2021/12/12 04:03:11;;;;;;;21.33;10.13;;;3.50;99.90;;;;;;5062210;28;20210;-65
2021/12/12 04:05:39;;;;;;;25.00;11.87;;;3.50;99.90;;;;;;5069215;28;20564;-65
2021/12/12 04:08:07;;;;;;;21.93;10.67;;;3.50;99.90;;;;;;5068722;28;20202;-65
2021/12/12 04:10:34;;;;;;;19.63;10.40;;;3.50;99.90;;;;;;5060690;28;20266;-65
2021/12/12 04:13:01;;;;;;;21.90;10.43;;;3.60;99.90;;;;;;5069405;28;20210;-65
2021/12/12 04:15:30;;;;;;;19.73;9.70;;;3.70;99.90;;;;;;5075107;28;20317;-65
2021/12/12 04:17:56;;;;;;;20.83;10.30;;;3.70;99.90;;;;;;5074979;28;20575;-65
2021/12/12 04:20:26;;;;;;;23.17;10.70;;;3.80;99.90;;;;;;5088383;28;20194;-65
2021/12/12 04:22:54;;;;;;;23.13;10.17;;;3.70;99.90;;;;;;5073017;28;20198;-65
2021/12/12 04:25:21;;;;;;;24.87;11.07;;;3.80;99.90;;;;;;5069590;28;20198;-65
2021/12/12 04:27:48;;;;;;;22.10;10.23;;;3.70;99.90;;;;;;5070201;28;20202;-65
2021/12/12 04:30:16;;;;;;;22.80;11.03;;;3.60;99.90;;;;;;5070245;28;20203;-66
2021/12/12 04:32:45;;;;;;;20.63;10.80;;;3.50;99.90;;;;;;5093624;28;20296;-65
2021/12/12 04:35:16;;;;;;;21.60;10.80;;;3.60;99.90;;;;;;5087070;28;20198;-65
2021/12/12 04:37:44;;;;;;;21.73;10.47;;;3.60;99.90;;;;;;5070491;28;20194;-65
2021/12/12 04:40:15;;;;;;;20.37;10.20;;;3.70;99.90;;;;;;5073687;28;20603;-65
2021/12/12 04:42:44;;;;;;;18.60;9.63;;;3.60;99.90;;;;;;5072244;28;20220;-65
2021/12/12 04:45:22;;;;;;;19.47;9.77;;;3.70;99.90;;;;;;5073214;28;20205;-65
2021/12/12 04:50:52;;;;;;;21.43;9.73;;;3.60;99.90;;;;;;5063149;28;20320;-65
2021/12/12 04:53:26;;;;;;;21.90;9.80;;;3.60;99.90;;;;;;5057365;28;20205;-66
2021/12/12 04:55:57;;;;;;;18.83;9.80;;;3.60;99.90;;;;;;5070626;28;20260;-65
2021/12/12 04:58:33;;;;;;;19.47;9.87;;;3.60;99.90;;;;;;5073361;28;20210;-66
2021/12/12 05:01:05;;;;;;;19.00;9.37;;;3.60;99.90;;;;;;5060926;28;20225;-65
2021/12/12 05:03:41;;;;;;;19.90;9.57;;;3.60;99.90;;;;;;5072533;28;20656;-65
2021/12/12 05:06:11;;;;;;;19.60;9.30;;;3.50;99.90;;;;;;5079313;28;20239;-65
2021/12/12 05:08:44;;;;;;;20.53;9.97;;;3.60;99.90;;;;;;5065528;28;20203;-65
2021/12/12 05:11:20;;;;;;;22.33;10.57;;;3.50;99.90;;;;;;5052782;28;20223;-65
2021/12/12 05:13:51;;;;;;;20.67;9.53;;;3.50;99.90;;;;;;5080958;28;20201;-65
2021/12/12 05:16:24;;;;;;;21.33;10.00;;;3.60;99.90;;;;;;5077822;28;20218;-65
2021/12/12 05:19:01;;;;;;;19.03;9.13;;;3.60;99.90;;;;;;5080718;28;20551;-65
2021/12/12 05:21:32;;;;;;;20.63;9.60;;;3.80;99.90;;;;;;5072700;28;20245;-65
2021/12/12 05:24:01;;;;;;;20.20;9.63;;;3.70;99.90;;;;;;5072168;28;20210;-65
2021/12/12 05:26:33;;;;;;;17.10;9.07;;;3.60;99.90;;;;;;5057401;28;20294;-65
2021/12/12 05:29:04;;;;;;;15.60;8.03;;;3.50;99.90;;;;;;5076781;28;20632;-65
2021/12/12 05:31:33;;;;;;;16.70;8.03;;;3.50;99.90;;;;;;5074181;28;20202;-65
2021/12/12 05:34:02;;;;;;;17.87;8.13;;;3.40;99.90;;;;;;5070549;28;20195;-65
2021/12/12 05:36:29;;;;;;;13.70;7.57;;;3.60;99.90;;;;;;5070992;28;20227;-65
2021/12/12 05:38:58;;;;;;;16.53;8.20;;;3.80;99.90;;;;;;5069570;28;20602;-65
2021/12/12 05:41:25;;;;;;;17.07;7.43;;;4.00;99.90;;;;;;5064896;28;20203;-65
2021/12/12 05:43:56;;;;;;;13.87;6.83;;;4.10;99.90;;;;;;5071688;28;20206;-65
2021/12/12 05:46:24;;;;;;;16.17;7.50;;;3.90;99.90;;;;;;5072258;28;20200;-65
2021/12/12 05:48:54;;;;;;;15.37;7.30;;;3.90;99.90;;;;;;5066154;28;20206;-65
2021/12/12 05:51:23;;;;;;;16.83;8.03;;;3.90;99.90;;;;;;5072351;28;20610;-65
2021/12/12 05:53:51;;;;;;;15.53;7.47;;;3.80;99.90;;;;;;5073624;28;20209;-65
2021/12/12 05:56:21;;;;;;;15.13;7.73;;;3.90;99.90;;;;;;5072655;28;20214;-65
2021/12/12 05:58:48;;;;;;;12.83;7.00;;;3.90;99.90;;;;;;5076822;28;20543;-65
2021/12/12 06:01:15;;;;;;;16.57;7.93;;;3.90;99.90;;;;;;5079550;28;20213;-65
2021/12/12 06:03:44;;;;;;;14.73;7.37;;;3.90;99.90;;;;;;5072662;28;20214;-66
2021/12/12 06:06:14;;;;;;;14.20;7.23;;;4.00;99.90;;;;;;5075740;28;20569;-65
2021/12/12 06:08:45;;;;;;;16.17;7.50;;;3.80;99.90;;;;;;5077602;28;20558;-66
2021/12/12 06:11:13;;;;;;;19.07;8.53;;;3.70;99.90;;;;;;5071029;28;20194;-74
2021/12/12 06:13:41;;;;;;;15.90;7.87;;;3.70;99.90;;;;;;5080657;28;20561;-74
2021/12/12 06:16:09;;;;;;;15.70;8.27;;;3.70;99.90;;;;;;5073767;28;20224;-73
2021/12/12 06:18:37;;;;;;;16.23;7.47;;;3.80;99.90;;;;;;5076412;28;20213;-74
2021/12/12 06:21:05;;;;;;;18.43;7.83;;;3.60;99.90;;;;;;5074522;28;20224;-73
2021/12/12 06:23:32;;;;;;;15.13;7.97;;;3.60;99.90;;;;;;5073019;28;20217;-74
2021/12/12 06:26:02;;;;;;;15.73;8.00;;;3.50;99.90;;;;;;5077503;28;20206;-73
2021/12/12 06:28:33;;;;;;;18.43;7.67;;;3.60;99.90;;;;;;5076380;28;20623;-74
2021/12/12 06:31:01;;;;;;;18.03;7.80;;;3.60;99.90;;;;;;5078677;28;20292;-74
2021/12/12 06:33:29;;;;;;;17.20;8.23;;;3.60;99.90;;;;;;5077982;28;20206;-74
2021/12/12 06:35:56;;;;;;;19.43;8.93;;;3.60;99.90;;;;;;5070181;28;20194;-74
2021/12/12 06:38:24;;;;;;;17.50;8.97;;;3.60;99.90;;;;;;5079122;28;20211;-73
2021/12/12 06:40:53;;;;;;;19.23;8.53;;;3.80;99.90;;;;;;5076033;28;20198;-73
2021/12/12 06:43:23;;;;;;;22.63;11.57;;;3.80;99.90;;;;;;5071925;28;20198;-73
2021/12/12 06:45:51;;;;;;;20.03;10.10;;;3.80;99.90;;;;;;5054897;28;20195;-73
2021/12/12 06:48:19;;;;;;;18.10;8.97;;;3.80;99.90;;;;;;5058479;28;20205;-67
2021/12/12 06:50:49;;;;;;;16.33;8.93;;;3.70;99.90;;;;;;5076517;28;20563;-66
2021/12/12 06:53:21;;;;;;;19.87;9.23;;;3.70;99.90;;;;;;5079025;28;20224;-66
2021/12/12 06:55:48;;;;;;;19.53;9.40;;;3.80;99.90;;;;;;5075655;28;20199;-66
2021/12/12 06:58:17;;;;;;;17.07;8.17;;;3.80;99.90;;;;;;5073440;28;20578;-66
2021/12/12 07:00:49;;;;;;;19.37;8.80;;;3.80;99.90;;;;;;5075437;28;20198;-66
2021/12/12 07:03:17;;;;;;;22.47;9.37;;;3.70;99.90;;;;;;5072600;28;20293;-66
2021/12/12 07:05:44;;;;;;;22.13;9.63;;;3.70;99.90;;;;;;5077474;28;20565;-66
2021/12/12 07:08:12;;;;;;;20.80;10.10;;;3.70;99.90;;;;;;5077118;28;20213;-67
2021/12/12 07:10:39;;;;;;;23.33;10.10;;;3.70;99.90;;;;;;5075589;28;20198;-66
2021/12/12 07:13:07;;;;;;;22.67;10.83;;;3.70;99.90;;;;;;5079593;28;20694;-66
2021/12/12 07:15:39;;;;;;;20.23;10.00;;;3.70;99.90;;;;;;5073483;28;20764;-66
2021/12/12 07:18:10;;;;;;;24.60;11.03;;;3.70;99.90;;;;;;5070118;28;20584;-66
2021/12/12 07:20:38;;;;;;;21.77;10.53;;;3.70;99.90;;;;;;5078533;28;20209;-66
2021/12/12 07:23:06;;;;;;;22.73;10.87;;;3.70;99.90;;;;;;5083778;28;20560;-66
2021/12/12 07:25:34;;;;;;;22.83;11.27;;;3.70;99.90;;;;;;5075210;28;20213;-66
2021/12/12 07:28:01;;;;;;;18.20;9.53;;;3.60;99.90;;;;;;5079646;28;21908;-66
2021/12/12 07:30:29;;;;;;;25.00;9.73;;;3.60;99.90;;;;;;5079022;28;20200;-66
2021/12/12 07:32:56;;;;;;;22.70;10.63;;;3.60;99.90;;;;;;5075186;28;20202;-66
2021/12/12 07:35:24;;;;;;;19.97;10.73;;;3.60;99.90;;;;;;5082475;28;20210;-66
2021/12/12 07:37:52;;;;;;;21.13;9.67;;;3.50;99.90;;;;;;5082051;28;20218;-66
2021/12/12 07:40:21;;;;;;;24.47;10.40;;;3.50;99.90;;;;;;5077016;28;20289;-66
2021/12/12 07:42:49;;;;;;;16.93;9.50;;;3.50;99.90;;;;;;5077599;28;20309;-66
2021/12/12 07:45:20;;;;;;;17.57;9.30;;;3.50;99.90;;;;;;5081878;28;20198;-66
2021/12/12 07:47:47;;;;;;;17.83;9.83;;;3.50;99.90;;;;;;5080684;28;20683;-66
2021/12/12 07:50:17;;;;;;;19.97;10.43;;;3.50;99.90;;;;;;5076651;28;20660;-66
2021/12/12 07:52:46;;;;;;;20.83;9.93;;;3.50;99.90;;;;;;5078722;28;20209;-66
2021/12/12 07:55:13;;;;;;;19.90;9.53;;;3.50;99.90;;;;;;5077366;28;20208;-66
2021/12/12 07:57:41;;;;;;;20.27;10.27;;;3.50;99.90;;;;;;5075858;28;20226;-66
2021/12/12 08:00:14;;;;;;;20.47;10.53;;;3.60;99.90;;;;;;5081971;28;20195;-66
2021/12/12 08:02:42;;;;;;;23.20;10.83;;;3.60;99.90;;;;;;5077514;28;20636;-66
2021/12/12 08:05:13;;;;;;;21.93;10.03;;;3.50;99.90;;;;;;5071979;28;20213;-66
2021/12/12 08:07:41;;;;;;;20.57;9.63;;;3.60;99.90;;;;;;5075482;28;20762;-66
2021/12/12 08:10:11;;;;;;;21.20;8.90;;;3.60;99.90;;;;;;5080903;28;20204;-64
2021/12/12 08:12:39;;;;;;;20.50;9.33;;;3.60;99.90;;;;;;5076592;28;20690;-64
2021/12/12 08:15:08;;;;;;;15.73;8.07;;;3.60;99.90;;;;;;5080967;28;20198;-65
2021/12/12 08:17:36;;;;;;;16.60;9.10;;;3.70;99.90;;;;;;5085932;28;20241;-64
2021/12/12 08:20:06;;;;;;;16.43;8.63;;;3.80;99.90;;;;;;5072959;28;20209;-64
2021/12/12 08:22:34;;;;;;;19.07;9.03;;;3.90;99.90;;;;;;5076393;28;20210;-64
2021/12/12 08:25:04;;;;;;;15.40;8.10;;;3.90;99.90;;;;;;5079315;28;20207;-65
2021/12/12 08:27:33;;;;;;;17.23;7.83;;;3.90;99.90;;;;;;5081593;28;20205;-64
2021/12/12 08:30:01;;;;;;;14.43;7.70;;;3.90;99.90;;;;;;5073295;28;20198;-64
2021/12/12 08:32:28;;;;;;;16.87;7.93;;;3.90;99.90;;;;;;5075515;28;20202;-64
2021/12/12 08:34:55;;;;;;;17.73;7.70;;;3.90;99.90;;;;;;5081286;28;20201;-65
2021/12/12 08:37:22;;;;;;;14.20;7.33;;;3.90;99.90;;;;;;5078187;28;20222;-64
2021/12/12 08:39:49;;;;;;;18.00;7.33;;;3.90;99.90;;;;;;5080998;28;20213;-65
2021/12/12 08:42:16;;;;;;;14.27;7.03;;;3.90;99.90;;;;;;5080525;28;20209;-64
2021/12/12 08:44:45;;;;;;;13.03;6.53;;;4.00;99.90;;;;;;5074849;28;20198;-65
2021/12/12 08:47:12;;;;;;;17.67;7.17;;;4.00;99.90;;;;;;5074927;28;20205;-65
2021/12/12 08:49:42;;;;;;;15.17;7.17;;;4.00;99.90;;;;;;5082225;28;20206;-65
2021/12/12 08:52:11;;;;;;;15.40;7.63;;;4.00;99.90;;;;;;5077437;28;20202;-65
2021/12/12 08:54:41;;;;;;;14.17;6.77;;;4.00;99.90;;;;;;5075197;28;20201;-65
2021/12/12 08:57:20;;;;;;;14.07;6.33;;;4.10;99.90;;;;;;5074948;28;20234;-64
2021/12/12 08:59:49;;;;;;;16.60;6.73;;;4.10;99.90;;;;;;5081108;28;20607;-64
2021/12/12 09:02:18;;;;;;;16.30;6.23;;;4.20;99.90;;;;;;5074841;28;20224;-64
2021/12/12 09:04:49;;;;;;;12.33;6.07;;;4.20;99.90;;;;;;5081900;28;20206;-64
2021/12/12 09:07:20;;;;;;;10.07;5.40;;;4.10;99.90;;;;;;5079576;28;20205;-64
2021/12/12 09:09:51;;;;;;;12.93;6.07;;;4.20;99.90;;;;;;5075532;28;20575;-65
2021/12/12 09:12:22;;;;;;;9.50;5.30;;;4.20;99.90;;;;;;5073053;28;20198;-66
2021/12/12 09:14:53;;;;;;;14.27;6.00;;;4.30;99.90;;;;;;5073614;28;20213;-64
2021/12/12 09:17:23;;;;;;;11.33;5.40;;;4.30;99.90;;;;;;5072346;28;20676;-65
2021/12/12 09:19:55;;;;;;;14.03;5.50;;;4.30;99.90;;;;;;5051940;28;20203;-64
2021/12/12 09:22:28;;;;;;;11.60;5.23;;;4.40;99.90;;;;;;5066295;28;20202;-64
2021/12/12 09:25:02;;;;;;;14.83;6.10;;;4.40;99.90;;;;;;5052350;28;20213;-64
2021/12/12 09:27:41;;;;;;;14.33;5.60;;;4.40;99.90;;;;;;5066511;28;20210;-64
2021/12/12 09:30:12;;;;;;;11.73;5.83;;;4.30;99.90;;;;;;5070129;28;20210;-64
2021/12/12 09:32:48;;;;;;;11.90;5.33;;;4.30;99.90;;;;;;5069657;28;20221;-66
2021/12/12 09:35:21;;;;;;;12.50;5.20;;;4.30;99.90;;;;;;5050837;28;20665;-66
2021/12/12 09:37:55;;;;;;;11.97;5.80;;;4.40;99.90;;;;;;5075030;28;20230;-66
2021/12/12 09:40:33;;;;;;;9.90;5.73;;;4.40;99.90;;;;;;5075201;28;20229;-66
2021/12/12 09:43:26;;;;;;;12.57;5.53;;;4.40;99.90;;;;;;5070270;28;20206;-66
2021/12/12 09:46:06;;;;;;;13.03;5.80;;;4.40;99.90;;;;;;5071850;28;20198;-66
2021/12/12 09:52:20;;;;;;;11.70;5.50;;;4.50;99.90;;;;;;5078628;28;20586;-66
2021/12/12 09:54:53;;;;;;;11.23;4.97;;;4.50;99.90;;;;;;5074746;28;20202;-67
2021/12/12 09:57:23;;;;;;;9.03;4.60;;;4.60;99.90;;;;;;5070624;28;20271;-66
2021/12/12 10:00:04;;;;;;;9.13;4.83;;;4.60;99.90;;;;;;5070819;28;20563;-66
2021/12/12 10:02:43;;;;;;;9.80;4.33;;;4.70;99.90;;;;;;5080620;28;20572;-67
2021/12/12 10:05:18;;;;;;;7.67;4.50;;;4.80;99.90;;;;;;5071124;28;20218;-67
2021/12/12 10:07:54;;;;;;;7.97;4.40;;;4.90;99.90;;;;;;5071262;28;20206;-66
2021/12/12 10:10:25;;;;;;;7.73;4.37;;;4.90;99.90;;;;;;5071268;28;20202;-66
2021/12/12 10:13:00;;;;;;;8.83;4.33;;;5.00;99.90;;;;;;5071157;28;20619;-67
2021/12/12 10:15:30;;;;;;;9.17;4.23;;;5.10;99.90;;;;;;5072781;28;20215;-66
2021/12/12 10:18:05;;;;;;;8.93;4.03;;;5.10;99.90;;;;;;5071839;28;20222;-65
2021/12/12 10:20:37;;;;;;;8.57;4.30;;;5.10;99.90;;;;;;5078196;28;20292;-65
2021/12/12 10:23:12;;;;;;;7.57;4.30;;;5.10;99.90;;;;;;5071244;28;20202;-66
2021/12/12 10:25:47;;;;;;;9.27;4.27;;;5.10;99.90;;;;;;5076545;28;20222;-65
2021/12/12 10:28:21;;;;;;;9.83;4.23;;;5.10;99.90;;;;;;5072531;28;20224;-66
2021/12/12 10:30:55;;;;;;;9.50;4.00;;;5.10;99.90;;;;;;5074062;28;20638;-66
2021/12/12 10:33:28;;;;;;;7.73;4.47;;;5.10;99.90;;;;;;5080300;28;20678;-65
2021/12/12 10:36:01;;;;;;;7.40;4.20;;;5.10;99.90;;;;;;5071474;28;20198;-65
2021/12/12 10:38:34;;;;;;;8.63;4.07;;;5.10;99.90;;;;;;5072352;28;20225;-65
2021/12/12 10:41:06;;;;;;;7.70;3.67;;;5.10;99.90;;;;;;5073444;28;20206;-66
2021/12/12 10:43:37;;;;;;;8.40;4.70;;;5.10;99.90;;;;;;5072008;28;20220;-65
2021/12/12 10:46:08;;;;;;;7.47;4.00;;;5.10;99.90;;;;;;5069708;28;20228;-65
2021/12/12 10:48:46;;;;;;;10.70;4.00;;;5.10;99.90;;;;;;5069924;28;20202;-65
2021/12/12 10:51:17;;;;;;;8.60;4.10;;;5.10;99.90;;;;;;5075205;28;20217;-65
2021/12/12 10:53:57;;;;;;;8.37;4.80;;;5.10;99.90;;;;;;5070572;28;20207;-65
2021/12/12 10:56:34;;;;;;;5.73;3.97;;;5.10;99.90;;;;;;5079289;28;20712;-65
2021/12/12 10:59:04;;;;;;;9.20;4.07;;;5.20;99.90;;;;;;5073733;28;20231;-65
2021/12/12 11:01:33;;;;;;;10.07;4.53;;;5.20;99.90;;;;;;5075089;28;20206;-64
2021/12/12 11:04:11;;;;;;;10.47;4.60;;;5.20;99.90;;;;;;5074827;28;20217;-64
2021/12/12 11:06:40;;;;;;;10.60;4.57;;;5.20;99.90;;;;;;5078094;28;20193;-64
2021/12/12 11:09:14;;;;;;;9.23;4.63;;;5.20;99.90;;;;;;5081169;28;20644;-64
2021/12/12 11:11:46;;;;;;;9.13;4.27;;;5.30;99.90;;;;;;5078068;28;20212;-64
2021/12/12 11:14:19;;;;;;;9.97;5.03;;;5.30;99.90;;;;;;5075244;28;20205;-64
2021/12/12 11:16:50;;;;;;;7.63;4.57;;;5.30;99.90;;;;;;5077794;28;20240;-64
2021/12/12 11:19:24;;;;;;;7.50;4.37;;;5.40;99.90;;;;;;5077034;28;20296;-64
2021/12/12 11:21:56;;;;;;;11.30;4.50;;;5.40;99.90;;;;;;5079319;28;20573;-64
2021/12/12 11:24:27;;;;;;;7.83;4.40;;;5.40;99.90;;;;;;5078695;28;20202;-64
2021/12/12 11:26:59;;;;;;;11.07;4.60;;;5.40;99.90;;;;;;5073612;28;20572;-64
2021/12/12 11:29:30;;;;;;;9.37;4.73;;;5.50;99.90;;;;;;5081663;28;20207;-64
2021/12/12 11:32:01;;;;;;;6.13;4.30;;;5.50;99.90;;;;;;5079437;28;20201;-64
2021/12/12 11:34:30;;;;;;;8.03;4.33;;;5.50;99.90;;;;;;5076129;28;20203;-64
2021/12/12 11:37:08;;;;;;;7.53;3.93;;;5.50;99.90;;;;;;5074305;28;20202;-64
2021/12/12 11:39:41;;;;;;;6.83;3.80;;;5.60;99.90;;;;;;5081082;28;20226;-64
2021/12/12 11:42:16;;;;;;;7.17;3.97;;;5.60;99.90;;;;;;5076928;28;20626;-64
2021/12/12 11:44:50;;;;;;;8.20;4.47;;;5.60;99.90;;;;;;5075966;28;20202;-64
2021/12/12 11:47:27;;;;;;;6.73;3.97;;;5.60;99.90;;;;;;5071882;28;20297;-64
2021/12/12 11:50:04;;;;;;;5.83;3.70;;;5.60;99.90;;;;;;5071845;28;20652;-64
2021/12/12 11:52:51;;;;;;;8.40;4.30;;;5.60;99.90;;;;;;5082069;28;20201;-64
2021/12/12 11:55:25;;;;;;;6.53;3.77;;;5.70;99.90;;;;;;5074317;28;20209;-64
2021/12/12 11:57:58;;;;;;;6.37;3.97;;;5.70;99.90;;;;;;5076376;28;20202;-64
2021/12/12 12:00:31;;;;;;;4.57;3.47;;;5.70;99.90;;;;;;5073528;28;20205;-64
2021/12/12 12:03:16;;;;;;;6.33;3.80;;;5.80;99.90;;;;;;5078322;28;20194;-64
2021/12/12 12:05:57;;;;;;;6.77;4.00;;;5.80;99.90;;;;;;5076735;28;20229;-64
2021/12/12 12:08:31;;;;;;;7.70;3.67;;;5.80;99.90;;;;;;5076926;28;20202;-64
2021/12/12 12:11:16;;;;;;;7.00;3.80;;;5.80;99.90;;;;;;5083807;28;20197;-64
2021/12/12 12:13:50;;;;;;;6.57;3.87;;;5.80;99.90;;;;;;5075206;28;20671;-64
2021/12/12 12:16:36;;;;;;;7.10;3.90;;;5.80;99.90;;;;;;5071416;28;20220;-64
2021/12/12 12:19:13;;;;;;;9.10;3.60;;;5.90;99.90;;;;;;5074313;28;20228;-67
2021/12/12 12:21:51;;;;;;;5.70;3.27;;;5.80;99.90;;;;;;5071289;28;20205;-67
2021/12/12 12:24:37;;;;;;;4.83;3.20;;;5.90;99.90;;;;;;5073068;28;20292;-64
2021/12/12 12:27:08;;;;;;;5.00;3.57;;;5.90;99.90;;;;;;5073987;28;20213;-64
2021/12/12 12:30:07;;;;;;;6.67;3.67;;;5.90;99.90;;;;;;5071307;28;20199;-64
2021/12/12 12:33:11;;;;;;;4.77;3.40;;;5.90;99.90;;;;;;5070085;28;20827;-64
2021/12/12 12:36:16;;;;;;;4.40;3.30;;;5.90;99.90;;;;;;5072504;28;20209;-64
2021/12/12 12:39:23;;;;;;;5.30;3.67;;;5.90;99.90;;;;;;5078285;28;20754;-64
2021/12/12 12:42:27;;;;;;;5.93;3.90;;;5.90;99.90;;;;;;5073367;28;20652;-70
2021/12/12 12:45:50;;;;;;;7.83;3.63;;;5.90;99.90;;;;;;5079596;28;20198;-64
2021/12/12 12:48:59;;;;;;;5.17;3.40;;;6.00;99.90;;;;;;5076746;28;20209;-64
2021/12/12 12:51:46;;;;;;;6.37;3.37;;;6.00;99.90;;;;;;5071400;28;20210;-64
2021/12/12 12:54:22;;;;;;;4.17;3.40;;;6.00;99.90;;;;;;5076746;28;20202;-64
2021/12/12 12:57:09;;;;;;;4.57;3.43;;;6.00;99.90;;;;;;5078748;28;20201;-66
2021/12/12 13:00:09;;;;;;;5.97;2.90;;;5.90;99.90;;;;;;5075749;28;20231;-66
2021/12/12 13:03:11;;;;;;;5.93;3.50;;;6.00;99.90;;;;;;5073316;28;20198;-66
2021/12/12 13:06:26;;;;;;;4.67;3.40;;;5.90;99.90;;;;;;5077837;28;20228;-74
2021/12/12 13:09:21;;;;;;;4.77;3.30;;;5.90;99.90;;;;;;5074796;28;20198;-72
2021/12/12 13:12:33;;;;;;;4.77;3.37;;;5.90;99.90;;;;;;5077033;28;20877;-73
2021/12/12 13:15:09;;;;;;;6.37;3.43;;;5.90;99.90;;;;;;5083723;28;20197;-72
2021/12/12 13:17:52;;;;;;;6.33;3.47;;;5.90;99.90;;;;;;5074580;28;20206;-73
2021/12/12 13:20:32;;;;;;;4.90;3.63;;;5.90;99.90;;;;;;5074295;28;20227;-73
2021/12/12 13:23:14;;;;;;;4.30;3.60;;;5.90;99.90;;;;;;5074373;28;20201;-73
2021/12/12 13:25:47;;;;;;;4.50;3.70;;;5.90;99.90;;;;;;5074923;28;20202;-73
2021/12/12 13:28:27;;;;;;;7.13;3.63;;;5.90;99.90;;;;;;5080167;28;20198;-73
2021/12/12 13:30:59;;;;;;;5.43;3.70;;;5.90;99.90;;;;;;5075976;28;20557;-72